Crescent City, CA

5:56 AM PDT on October 22, 2014 (GMT -0700)
KCACRESC6 | Change Station
CLOSE
Current Station
Personal Weather Station
Location: Crescent City, CA
Elevation: 16 m
Nearby Weather Stations

Elev 16 m 41.81 °N, 124.18 °W | Updated 49 seconds ago

Mostly Cloudy
Mostly Cloudy
16.8 °C
Feels Like 16.8 °C
N
24.6
Wind Variable Wind from South
Gusts 30.6 km/h

Today
High -- | Low -- °C
--% Chance of Precip.
Yesterday
High -- | Low -- °C
Precip. -- mm
7:37 AM 6:24 PM
Waning Crescent, 2% visible
Pressure 1014 hPa
Visibility 16.1 kilometers
Clouds Scattered Clouds 853 m
Mostly Cloudy 1524 m
Overcast 1828 m
Dew Point 11 °C
Humidity 69%
Rainfall -25375 mm
Snow Depth Not available.
UV 0 out of 12
Pollen 2.70 out of 12
Air Quality Not available.
Flu Activity Sporadic
SPECI KCEC 221208Z AUTO 16018G23KT 10SM SCT028 BKN050 OVC060 17/11 A2995 RMK AO2 T01670106

More Conditions Fewer Conditions

Pressure 1014 hPa
Visibility 16.1 kilometers
Clouds Scattered Clouds 853 m
Mostly Cloudy 1524 m
Overcast 1828 m
Dew Point 11 °C
Humidity 69%
Rainfall -25375 mm
Snow Depth Not available.
UV 0 out of 12
Pollen 2.70 out of 12
Air Quality Not available.
Flu Activity Sporadic
SPECI KCEC 221208Z AUTO 16018G23KT 10SM SCT028 BKN050 OVC060 17/11 A2995 RMK AO2 T01670106

More Conditions Fewer Conditions

10-Day Weather Forecast

Almanac

Astronomy

Oct. 22, 2014 Rise Set
Actual Time 7:37 AM PDT 6:24 PM PDT
Civil Twilight 7:08 AM PDT 6:52 PM PDT
Nautical Twilight 6:36 AM PDT 7:25 PM PDT
Astronomical Twilight 6:04 AM PDT 7:57 PM PDT
Moon 6:22 AM PDT 5:55 PM PDT
Length of Visible Light 11h 44m
Length of Day
10h 47m
Tomorrow will be 2m 38s shorter.
Waning Crescent, 2% of the Moon is Illuminated
Today
Waning Crescent
Oct 23
New
Oct 30
First Quarter
Nov 6
Full
Nov 14
Last Quarter

Today's Extremes

State Highs State Lows

Community

WunderPhotos

Upload Photos

1,763,907 photos uploaded!

Nearby

Snow Depth

Station Depth Elevation
Adin Mountain 1 in 6200 ft
Independence Creek 0 in 6500 ft
Independence Lake 0 in 8450 ft
Independence Camp 0 in 7000 ft
CSS Lab 1 in 6900 ft

Earthquake Activity

City Distance Mag. Time & Date
Crescent City, California 67 kilometers 2.6 1:22 AM PDT
2014-10-21
Rio Dell, California 169 kilometers 4.2 7:24 AM PDT
2014-10-19
Minimum magnitude displayed is 2.5.

Coastal Water Temperatures

Place Temperature
Crescent City, CA 15.6 °C
North Spit, CA 15.0 °C
Port Orford, OR 14.4 °C

Nearby Weather Stations